sensor_id;sensor_type;location;lat;lon;timestamp;temperature;humidity
51567;DHT22;37657;53.182;5.638;2023-03-16T00:02:17;4.70;99.90
51567;DHT22;37657;53.182;5.638;2023-03-16T00:04:42;4.70;99.90
51567;DHT22;37657;53.182;5.638;2023-03-16T00:07:13;4.70;99.90
51567;DHT22;37657;53.182;5.638;2023-03-16T00:09:39;4.70;99.90
51567;DHT22;37657;53.182;5.638;2023-03-16T00:12:07;4.70;99.90
51567;DHT22;37657;53.182;5.638;2023-03-16T00:14:40;4.70;99.90
51567;DHT22;37657;53.182;5.638;2023-03-16T00:17:06;4.70;99.90
51567;DHT22;37657;53.182;5.638;2023-03-16T00:19:31;4.70;99.90
51567;DHT22;37657;53.182;5.638;2023-03-16T00:21:59;4.70;99.90
51567;DHT22;37657;53.182;5.638;2023-03-16T00:24:25;4.80;99.90
51567;DHT22;37657;53.182;5.638;2023-03-16T00:26:51;4.80;99.90
51567;DHT22;37657;53.182;5.638;2023-03-16T00:29:19;4.80;99.90
51567;DHT22;37657;53.182;5.638;2023-03-16T00:31:47;4.80;99.90
51567;DHT22;37657;53.182;5.638;2023-03-16T00:34:12;4.90;99.90
51567;DHT22;37657;53.182;5.638;2023-03-16T00:36:40;4.80;99.90
51567;DHT22;37657;53.182;5.638;2023-03-16T00:39:07;4.90;99.90
51567;DHT22;37657;53.182;5.638;2023-03-16T00:41:35;4.80;99.90
51567;DHT22;37657;53.182;5.638;2023-03-16T00:44:03;4.80;99.90
51567;DHT22;37657;53.182;5.638;2023-03-16T00:46:29;4.80;99.90
51567;DHT22;37657;53.182;5.638;2023-03-16T00:48:55;4.80;99.90
51567;DHT22;37657;53.182;5.638;2023-03-16T00:51:20;4.80;99.90
51567;DHT22;37657;53.182;5.638;2023-03-16T00:53:47;4.80;99.90
51567;DHT22;37657;53.182;5.638;2023-03-16T00:56:14;4.80;99.90
51567;DHT22;37657;53.182;5.638;2023-03-16T00:58:41;4.80;99.90
51567;DHT22;37657;53.182;5.638;2023-03-16T01:01:14;4.80;99.90
51567;DHT22;37657;53.182;5.638;2023-03-16T01:03:40;4.80;99.90
51567;DHT22;37657;53.182;5.638;2023-03-16T01:06:09;4.80;99.90
51567;DHT22;37657;53.182;5.638;2023-03-16T01:08:39;4.80;99.90
51567;DHT22;37657;53.182;5.638;2023-03-16T01:11:08;4.80;99.90
51567;DHT22;37657;53.182;5.638;2023-03-16T01:13:35;4.80;99.90
51567;DHT22;37657;53.182;5.638;2023-03-16T01:16:00;4.80;99.90
51567;DHT22;37657;53.182;5.638;2023-03-16T01:18:27;4.80;99.90
51567;DHT22;37657;53.182;5.638;2023-03-16T01:20:53;4.80;99.90
51567;DHT22;37657;53.182;5.638;2023-03-16T01:23:20;4.70;99.90
51567;DHT22;37657;53.182;5.638;2023-03-16T01:25:46;4.70;99.90
51567;DHT22;37657;53.182;5.638;2023-03-16T01:28:22;4.70;99.90
51567;DHT22;37657;53.182;5.638;2023-03-16T01:30:50;4.70;99.90
51567;DHT22;37657;53.182;5.638;2023-03-16T01:33:19;4.80;99.90
51567;DHT22;37657;53.182;5.638;2023-03-16T01:36:13;4.80;99.90
51567;DHT22;37657;53.182;5.638;2023-03-16T01:38:39;4.80;99.90
51567;DHT22;37657;53.182;5.638;2023-03-16T01:41:05;4.90;99.90
51567;DHT22;37657;53.182;5.638;2023-03-16T01:43:33;4.90;99.90
51567;DHT22;37657;53.182;5.638;2023-03-16T01:51:10;5.00;99.90
51567;DHT22;37657;53.182;5.638;2023-03-16T01:53:38;5.00;99.90
51567;DHT22;37657;53.182;5.638;2023-03-16T01:56:07;5.00;99.90
51567;DHT22;37657;53.182;5.638;2023-03-16T01:58:34;5.00;99.90
51567;DHT22;37657;53.182;5.638;2023-03-16T02:01:02;5.00;99.90
51567;DHT22;37657;53.182;5.638;2023-03-16T02:03:29;5.10;99.90
51567;DHT22;37657;53.182;5.638;2023-03-16T02:06:09;5.10;99.90
51567;DHT22;37657;53.182;5.638;2023-03-16T02:08:38;5.20;99.90
51567;DHT22;37657;53.182;5.638;2023-03-16T02:11:05;5.10;99.90
51567;DHT22;37657;53.182;5.638;2023-03-16T02:13:33;5.20;99.90
51567;DHT22;37657;53.182;5.638;2023-03-16T02:16:02;5.20;99.90
51567;DHT22;37657;53.182;5.638;2023-03-16T02:18:28;5.20;99.90
51567;DHT22;37657;53.182;5.638;2023-03-16T02:23:50;5.20;99.90
51567;DHT22;37657;53.182;5.638;2023-03-16T02:32:13;5.20;99.90
51567;DHT22;37657;53.182;5.638;2023-03-16T02:34:39;5.30;99.90
51567;DHT22;37657;53.182;5.638;2023-03-16T02:37:06;5.30;99.90
51567;DHT22;37657;53.182;5.638;2023-03-16T02:39:33;5.30;99.90
51567;DHT22;37657;53.182;5.638;2023-03-16T02:41:59;5.20;99.90
51567;DHT22;37657;53.182;5.638;2023-03-16T02:44:29;5.30;99.90
51567;DHT22;37657;53.182;5.638;2023-03-16T02:47:04;5.30;99.90
51567;DHT22;37657;53.182;5.638;2023-03-16T02:49:43;5.30;99.90
51567;DHT22;37657;53.182;5.638;2023-03-16T02:52:09;5.30;99.90
51567;DHT22;37657;53.182;5.638;2023-03-16T02:54:35;5.30;99.90
51567;DHT22;37657;53.182;5.638;2023-03-16T02:57:01;5.30;99.90
51567;DHT22;37657;53.182;5.638;2023-03-16T02:59:27;5.30;99.90
51567;DHT22;37657;53.182;5.638;2023-03-16T03:01:53;5.30;99.90
51567;DHT22;37657;53.182;5.638;2023-03-16T03:04:18;5.30;99.90
51567;DHT22;37657;53.182;5.638;2023-03-16T03:06:48;5.40;99.90
51567;DHT22;37657;53.182;5.638;2023-03-16T03:09:13;5.30;99.90
51567;DHT22;37657;53.182;5.638;2023-03-16T03:11:39;5.30;99.90
51567;DHT22;37657;53.182;5.638;2023-03-16T03:14:05;5.40;99.90
51567;DHT22;37657;53.182;5.638;2023-03-16T03:16:30;5.40;99.90
51567;DHT22;37657;53.182;5.638;2023-03-16T03:18:57;5.40;99.90
51567;DHT22;37657;53.182;5.638;2023-03-16T03:21:23;5.40;99.90
51567;DHT22;37657;53.182;5.638;2023-03-16T03:23:48;5.40;99.90
51567;DHT22;37657;53.182;5.638;2023-03-16T03:26:15;5.40;99.90
51567;DHT22;37657;53.182;5.638;2023-03-16T03:28:40;5.40;99.90
51567;DHT22;37657;53.182;5.638;2023-03-16T03:31:12;5.40;99.90
51567;DHT22;37657;53.182;5.638;2023-03-16T03:33:39;5.40;99.90
51567;DHT22;37657;53.182;5.638;2023-03-16T03:36:05;5.40;99.90
51567;DHT22;37657;53.182;5.638;2023-03-16T03:38:30;5.40;99.90
51567;DHT22;37657;53.182;5.638;2023-03-16T03:40:56;5.40;99.90
51567;DHT22;37657;53.182;5.638;2023-03-16T03:43:24;5.40;99.90
51567;DHT22;37657;53.182;5.638;2023-03-16T03:45:58;5.30;99.90
51567;DHT22;37657;53.182;5.638;2023-03-16T03:48:24;5.40;99.90
51567;DHT22;37657;53.182;5.638;2023-03-16T03:50:50;5.40;99.90
51567;DHT22;37657;53.182;5.638;2023-03-16T03:53:16;5.40;99.90
51567;DHT22;37657;53.182;5.638;2023-03-16T03:55:41;5.40;99.90
51567;DHT22;37657;53.182;5.638;2023-03-16T03:58:07;5.30;99.90
51567;DHT22;37657;53.182;5.638;2023-03-16T04:00:33;5.40;99.90
51567;DHT22;37657;53.182;5.638;2023-03-16T04:02:58;5.40;99.90
51567;DHT22;37657;53.182;5.638;2023-03-16T04:05:24;5.40;99.90
51567;DHT22;37657;53.182;5.638;2023-03-16T04:07:53;5.30;99.90
51567;DHT22;37657;53.182;5.638;2023-03-16T04:10:28;5.30;99.90
51567;DHT22;37657;53.182;5.638;2023-03-16T04:12:58;5.30;99.90
51567;DHT22;37657;53.182;5.638;2023-03-16T04:15:24;5.30;99.90
51567;DHT22;37657;53.182;5.638;2023-03-16T04:17:50;5.30;99.90
51567;DHT22;37657;53.182;5.638;2023-03-16T04:20:17;5.30;99.90
51567;DHT22;37657;53.182;5.638;2023-03-16T04:22:47;5.40;99.90
51567;DHT22;37657;53.182;5.638;2023-03-16T04:25:15;5.30;99.90
51567;DHT22;37657;53.182;5.638;2023-03-16T04:27:41;5.30;99.90
51567;DHT22;37657;53.182;5.638;2023-03-16T04:30:10;5.30;99.90
51567;DHT22;37657;53.182;5.638;2023-03-16T04:32:36;5.30;99.90
51567;DHT22;37657;53.182;5.638;2023-03-16T04:35:03;5.30;99.90
51567;DHT22;37657;53.182;5.638;2023-03-16T04:37:29;5.30;99.90
51567;DHT22;37657;53.182;5.638;2023-03-16T04:39:54;5.30;99.90
51567;DHT22;37657;53.182;5.638;2023-03-16T04:42:20;5.30;99.90
51567;DHT22;37657;53.182;5.638;2023-03-16T04:44:46;5.20;99.90
51567;DHT22;37657;53.182;5.638;2023-03-16T04:47:14;5.20;99.90
51567;DHT22;37657;53.182;5.638;2023-03-16T04:49:40;5.20;99.90
51567;DHT22;37657;53.182;5.638;2023-03-16T04:52:06;5.20;99.90
51567;DHT22;37657;53.182;5.638;2023-03-16T04:54:33;5.30;99.90
51567;DHT22;37657;53.182;5.638;2023-03-16T04:56:59;5.20;99.90
51567;DHT22;37657;53.182;5.638;2023-03-16T04:59:25;5.20;99.90
51567;DHT22;37657;53.182;5.638;2023-03-16T05:01:52;5.20;99.90
51567;DHT22;37657;53.182;5.638;2023-03-16T05:04:18;5.30;99.90
51567;DHT22;37657;53.182;5.638;2023-03-16T05:06:44;5.30;99.90
51567;DHT22;37657;53.182;5.638;2023-03-16T05:09:10;5.30;99.90
51567;DHT22;37657;53.182;5.638;2023-03-16T05:11:36;5.30;99.90
51567;DHT22;37657;53.182;5.638;2023-03-16T05:14:01;5.30;99.90
51567;DHT22;37657;53.182;5.638;2023-03-16T05:16:28;5.30;99.90
51567;DHT22;37657;53.182;5.638;2023-03-16T05:18:57;5.30;99.90
51567;DHT22;37657;53.182;5.638;2023-03-16T05:21:23;5.20;99.90
51567;DHT22;37657;53.182;5.638;2023-03-16T05:23:48;5.20;99.90
51567;DHT22;37657;53.182;5.638;2023-03-16T05:26:14;5.20;99.90
51567;DHT22;37657;53.182;5.638;2023-03-16T05:28:39;5.20;99.90
51567;DHT22;37657;53.182;5.638;2023-03-16T05:31:07;5.20;99.90
51567;DHT22;37657;53.182;5.638;2023-03-16T05:33:32;5.30;99.90
51567;DHT22;37657;53.182;5.638;2023-03-16T05:35:58;5.30;99.90
51567;DHT22;37657;53.182;5.638;2023-03-16T05:38:24;5.30;99.90
51567;DHT22;37657;53.182;5.638;2023-03-16T05:40:52;5.30;99.90
51567;DHT22;37657;53.182;5.638;2023-03-16T05:43:19;5.30;99.90
51567;DHT22;37657;53.182;5.638;2023-03-16T05:45:45;5.30;99.90
51567;DHT22;37657;53.182;5.638;2023-03-16T05:48:12;5.30;99.90
51567;DHT22;37657;53.182;5.638;2023-03-16T05:50:39;5.30;99.90
51567;DHT22;37657;53.182;5.638;2023-03-16T05:53:05;5.30;99.90
51567;DHT22;37657;53.182;5.638;2023-03-16T05:55:30;5.30;99.90
51567;DHT22;37657;53.182;5.638;2023-03-16T05:57:57;5.30;99.90
51567;DHT22;37657;53.182;5.638;2023-03-16T06:00:23;5.40;99.90
51567;DHT22;37657;53.182;5.638;2023-03-16T06:02:50;5.40;99.90
51567;DHT22;37657;53.182;5.638;2023-03-16T06:05:17;5.40;99.90
51567;DHT22;37657;53.182;5.638;2023-03-16T06:07:43;5.40;99.90
51567;DHT22;37657;53.182;5.638;2023-03-16T06:10:10;5.40;99.90
51567;DHT22;37657;53.182;5.638;2023-03-16T06:12:36;5.40;99.90
51567;DHT22;37657;53.182;5.638;2023-03-16T06:15:03;5.50;99.90
51567;DHT22;37657;53.182;5.638;2023-03-16T06:17:32;5.50;99.90
51567;DHT22;37657;53.182;5.638;2023-03-16T06:19:57;5.60;99.90
51567;DHT22;37657;53.182;5.638;2023-03-16T06:22:23;5.60;99.90
51567;DHT22;37657;53.182;5.638;2023-03-16T06:24:50;5.50;99.90
51567;DHT22;37657;53.182;5.638;2023-03-16T06:27:16;5.50;99.90
51567;DHT22;37657;53.182;5.638;2023-03-16T06:29:42;5.60;99.90
51567;DHT22;37657;53.182;5.638;2023-03-16T06:32:08;5.50;99.90
51567;DHT22;37657;53.182;5.638;2023-03-16T06:34:34;5.60;99.90
51567;DHT22;37657;53.182;5.638;2023-03-16T06:36:59;5.60;99.90
51567;DHT22;37657;53.182;5.638;2023-03-16T06:39:25;5.60;99.90
51567;DHT22;37657;53.182;5.638;2023-03-16T06:41:50;5.60;99.90
51567;DHT22;37657;53.182;5.638;2023-03-16T06:44:16;5.60;99.90
51567;DHT22;37657;53.182;5.638;2023-03-16T06:46:41;5.60;99.90
51567;DHT22;37657;53.182;5.638;2023-03-16T06:49:07;5.60;99.90
51567;DHT22;37657;53.182;5.638;2023-03-16T06:51:32;5.60;99.90
51567;DHT22;37657;53.182;5.638;2023-03-16T06:53:58;5.60;99.90
51567;DHT22;37657;53.182;5.638;2023-03-16T06:56:24;5.70;99.90
51567;DHT22;37657;53.182;5.638;2023-03-16T06:58:52;5.60;99.90
51567;DHT22;37657;53.182;5.638;2023-03-16T07:01:17;5.60;99.90
51567;DHT22;37657;53.182;5.638;2023-03-16T07:03:43;5.60;99.90
51567;DHT22;37657;53.182;5.638;2023-03-16T07:06:08;5.60;99.90
51567;DHT22;37657;53.182;5.638;2023-03-16T07:08:34;5.70;99.90
51567;DHT22;37657;53.182;5.638;2023-03-16T07:11:00;5.70;99.90
51567;DHT22;37657;53.182;5.638;2023-03-16T07:13:26;5.70;99.90
51567;DHT22;37657;53.182;5.638;2023-03-16T07:15:52;5.70;99.90
51567;DHT22;37657;53.182;5.638;2023-03-16T07:18:18;5.80;99.90
51567;DHT22;37657;53.182;5.638;2023-03-16T07:20:43;5.80;99.90
51567;DHT22;37657;53.182;5.638;2023-03-16T07:23:09;5.70;99.90
51567;DHT22;37657;53.182;5.638;2023-03-16T07:25:35;5.80;99.90
51567;DHT22;37657;53.182;5.638;2023-03-16T07:28:01;5.70;99.90
51567;DHT22;37657;53.182;5.638;2023-03-16T07:30:28;5.70;99.90
51567;DHT22;37657;53.182;5.638;2023-03-16T07:32:53;5.80;99.90
51567;DHT22;37657;53.182;5.638;2023-03-16T07:35:19;5.80;99.90
51567;DHT22;37657;53.182;5.638;2023-03-16T07:37:46;5.80;99.90
51567;DHT22;37657;53.182;5.638;2023-03-16T07:40:12;5.90;99.90
51567;DHT22;37657;53.182;5.638;2023-03-16T07:42:39;5.90;99.90
51567;DHT22;37657;53.182;5.638;2023-03-16T07:45:05;5.90;99.90
51567;DHT22;37657;53.182;5.638;2023-03-16T07:47:31;5.90;99.90
51567;DHT22;37657;53.182;5.638;2023-03-16T07:49:58;5.90;99.90
51567;DHT22;37657;53.182;5.638;2023-03-16T07:52:24;5.90;99.90
51567;DHT22;37657;53.182;5.638;2023-03-16T07:54:49;5.90;99.90
51567;DHT22;37657;53.182;5.638;2023-03-16T07:57:15;5.90;99.90
51567;DHT22;37657;53.182;5.638;2023-03-16T07:59:41;5.90;99.90
51567;DHT22;37657;53.182;5.638;2023-03-16T08:02:14;5.90;99.90
51567;DHT22;37657;53.182;5.638;2023-03-16T08:04:40;5.90;99.90
51567;DHT22;37657;53.182;5.638;2023-03-16T08:07:10;6.00;99.90
51567;DHT22;37657;53.182;5.638;2023-03-16T08:09:36;5.90;99.90
51567;DHT22;37657;53.182;5.638;2023-03-16T08:12:05;5.90;99.90
51567;DHT22;37657;53.182;5.638;2023-03-16T08:14:32;6.00;99.90
51567;DHT22;37657;53.182;5.638;2023-03-16T08:17:02;6.00;99.90
51567;DHT22;37657;53.182;5.638;2023-03-16T08:19:28;6.00;99.90
51567;DHT22;37657;53.182;5.638;2023-03-16T08:21:54;6.00;99.90
51567;DHT22;37657;53.182;5.638;2023-03-16T08:24:20;6.00;99.90
51567;DHT22;37657;53.182;5.638;2023-03-16T08:26:45;6.00;99.90
51567;DHT22;37657;53.182;5.638;2023-03-16T08:29:12;6.00;99.90
51567;DHT22;37657;53.182;5.638;2023-03-16T08:31:38;6.10;99.90
51567;DHT22;37657;53.182;5.638;2023-03-16T08:34:03;6.00;99.90
51567;DHT22;37657;53.182;5.638;2023-03-16T08:36:29;6.10;99.90
51567;DHT22;37657;53.182;5.638;2023-03-16T08:38:55;6.10;99.90
51567;DHT22;37657;53.182;5.638;2023-03-16T08:41:21;6.10;99.90
51567;DHT22;37657;53.182;5.638;2023-03-16T08:43:47;6.10;99.90
51567;DHT22;37657;53.182;5.638;2023-03-16T08:46:13;6.10;99.90
51567;DHT22;37657;53.182;5.638;2023-03-16T08:48:40;6.20;99.90
51567;DHT22;37657;53.182;5.638;2023-03-16T08:51:06;6.30;99.90
51567;DHT22;37657;53.182;5.638;2023-03-16T08:53:32;6.30;99.90
51567;DHT22;37657;53.182;5.638;2023-03-16T08:58:29;6.40;99.90
51567;DHT22;37657;53.182;5.638;2023-03-16T09:00:57;6.40;99.90
51567;DHT22;37657;53.182;5.638;2023-03-16T09:03:24;6.40;99.90
51567;DHT22;37657;53.182;5.638;2023-03-16T09:05:50;6.40;99.90
51567;DHT22;37657;53.182;5.638;2023-03-16T09:08:17;6.40;99.90
51567;DHT22;37657;53.182;5.638;2023-03-16T09:10:43;6.50;99.90
51567;DHT22;37657;53.182;5.638;2023-03-16T09:13:09;6.60;99.90
51567;DHT22;37657;53.182;5.638;2023-03-16T09:15:35;6.60;99.90
51567;DHT22;37657;53.182;5.638;2023-03-16T09:18:02;6.60;99.90
51567;DHT22;37657;53.182;5.638;2023-03-16T09:20:28;6.60;99.90
51567;DHT22;37657;53.182;5.638;2023-03-16T09:22:55;6.70;99.90
51567;DHT22;37657;53.182;5.638;2023-03-16T09:25:21;6.60;99.90
51567;DHT22;37657;53.182;5.638;2023-03-16T09:27:47;6.70;99.90
51567;DHT22;37657;53.182;5.638;2023-03-16T09:30:13;6.60;99.90
51567;DHT22;37657;53.182;5.638;2023-03-16T09:32:39;6.70;99.90
51567;DHT22;37657;53.182;5.638;2023-03-16T09:35:05;6.70;99.90
51567;DHT22;37657;53.182;5.638;2023-03-16T09:37:32;6.70;99.90
51567;DHT22;37657;53.182;5.638;2023-03-16T09:39:58;6.70;99.90
51567;DHT22;37657;53.182;5.638;2023-03-16T09:42:38;6.70;99.90
51567;DHT22;37657;53.182;5.638;2023-03-16T09:45:25;6.70;99.90
51567;DHT22;37657;53.182;5.638;2023-03-16T09:47:57;6.70;99.90
51567;DHT22;37657;53.182;5.638;2023-03-16T09:50:33;6.70;99.90
51567;DHT22;37657;53.182;5.638;2023-03-16T09:53:21;6.70;99.90
51567;DHT22;37657;53.182;5.638;2023-03-16T09:55:59;6.70;99.90
51567;DHT22;37657;53.182;5.638;2023-03-16T09:58:27;6.70;99.90
51567;DHT22;37657;53.182;5.638;2023-03-16T10:02:14;6.70;99.90
51567;DHT22;37657;53.182;5.638;2023-03-16T10:04:15;6.70;99.90
51567;DHT22;37657;53.182;5.638;2023-03-16T10:06:54;6.70;99.90
51567;DHT22;37657;53.182;5.638;2023-03-16T10:09:46;6.70;99.90
51567;DHT22;37657;53.182;5.638;2023-03-16T10:12:15;6.70;99.90
51567;DHT22;37657;53.182;5.638;2023-03-16T10:17:31;6.80;99.90
51567;DHT22;37657;53.182;5.638;2023-03-16T10:20:10;6.80;99.90
51567;DHT22;37657;53.182;5.638;2023-03-16T10:22:42;6.80;99.90
51567;DHT22;37657;53.182;5.638;2023-03-16T10:25:39;6.90;99.90
51567;DHT22;37657;53.182;5.638;2023-03-16T10:28:14;6.90;99.90
51567;DHT22;37657;53.182;5.638;2023-03-16T10:30:40;7.00;99.90
51567;DHT22;37657;53.182;5.638;2023-03-16T10:33:26;7.10;99.90
51567;DHT22;37657;53.182;5.638;2023-03-16T10:41:28;7.30;99.90
51567;DHT22;37657;53.182;5.638;2023-03-16T10:44:12;7.40;99.90
51567;DHT22;37657;53.182;5.638;2023-03-16T10:46:56;7.40;99.90
51567;DHT22;37657;53.182;5.638;2023-03-16T10:49:23;7.50;99.90
51567;DHT22;37657;53.182;5.638;2023-03-16T10:51:57;7.50;99.90
51567;DHT22;37657;53.182;5.638;2023-03-16T10:54:33;7.60;99.90
51567;DHT22;37657;53.182;5.638;2023-03-16T10:57:00;7.60;99.90
51567;DHT22;37657;53.182;5.638;2023-03-16T10:59:34;7.70;99.90
51567;DHT22;37657;53.182;5.638;2023-03-16T11:02:20;7.70;99.90
51567;DHT22;37657;53.182;5.638;2023-03-16T11:04:48;7.80;99.90
51567;DHT22;37657;53.182;5.638;2023-03-16T11:07:21;7.90;99.90
51567;DHT22;37657;53.182;5.638;2023-03-16T11:09:50;7.90;99.90
51567;DHT22;37657;53.182;5.638;2023-03-16T11:12:30;7.90;99.90
51567;DHT22;37657;53.182;5.638;2023-03-16T11:15:03;7.90;99.90
51567;DHT22;37657;53.182;5.638;2023-03-16T11:17:55;8.10;99.90
51567;DHT22;37657;53.182;5.638;2023-03-16T11:20:24;8.10;99.90
51567;DHT22;37657;53.182;5.638;2023-03-16T11:22:50;8.20;99.90
51567;DHT22;37657;53.182;5.638;2023-03-16T11:25:36;8.40;99.90
51567;DHT22;37657;53.182;5.638;2023-03-16T11:33:32;8.70;99.90
51567;DHT22;37657;53.182;5.638;2023-03-16T11:36:49;8.70;99.90
51567;DHT22;37657;53.182;5.638;2023-03-16T11:47:16;9.10;99.90
51567;DHT22;37657;53.182;5.638;2023-03-16T11:53:02;9.10;99.90
51567;DHT22;37657;53.182;5.638;2023-03-16T11:55:38;9.10;99.90
51567;DHT22;37657;53.182;5.638;2023-03-16T11:58:16;9.10;99.90
51567;DHT22;37657;53.182;5.638;2023-03-16T12:09:36;9.30;99.90
51567;DHT22;37657;53.182;5.638;2023-03-16T12:14:42;9.30;99.90
51567;DHT22;37657;53.182;5.638;2023-03-16T12:17:13;9.30;99.90
51567;DHT22;37657;53.182;5.638;2023-03-16T12:19:50;9.20;99.90
51567;DHT22;37657;53.182;5.638;2023-03-16T12:22:43;9.30;99.90
51567;DHT22;37657;53.182;5.638;2023-03-16T12:25:21;9.30;99.90
51567;DHT22;37657;53.182;5.638;2023-03-16T12:27:51;9.40;99.90
51567;DHT22;37657;53.182;5.638;2023-03-16T12:38:24;9.30;99.90
51567;DHT22;37657;53.182;5.638;2023-03-16T12:43:37;9.20;99.90
51567;DHT22;37657;53.182;5.638;2023-03-16T12:46:12;9.10;99.90
51567;DHT22;37657;53.182;5.638;2023-03-16T12:48:43;9.10;99.90
51567;DHT22;37657;53.182;5.638;2023-03-16T12:51:11;9.00;99.90
51567;DHT22;37657;53.182;5.638;2023-03-16T12:53:41;9.10;99.90
51567;DHT22;37657;53.182;5.638;2023-03-16T12:56:14;9.10;99.90
51567;DHT22;37657;53.182;5.638;2023-03-16T12:58:50;9.20;99.90
51567;DHT22;37657;53.182;5.638;2023-03-16T13:01:26;9.20;99.90
51567;DHT22;37657;53.182;5.638;2023-03-16T13:04:04;9.20;99.90
51567;DHT22;37657;53.182;5.638;2023-03-16T13:06:33;9.30;99.90
51567;DHT22;37657;53.182;5.638;2023-03-16T13:09:00;9.40;99.90
51567;DHT22;37657;53.182;5.638;2023-03-16T13:11:26;9.40;99.90
51567;DHT22;37657;53.182;5.638;2023-03-16T13:16:28;9.60;99.90
51567;DHT22;37657;53.182;5.638;2023-03-16T13:18:54;9.60;99.90
51567;DHT22;37657;53.182;5.638;2023-03-16T13:21:34;9.60;99.90
51567;DHT22;37657;53.182;5.638;2023-03-16T13:27:03;9.60;99.90
51567;DHT22;37657;53.182;5.638;2023-03-16T13:29:32;9.60;99.90
51567;DHT22;37657;53.182;5.638;2023-03-16T13:32:05;9.60;99.90
51567;DHT22;37657;53.182;5.638;2023-03-16T13:34:50;9.70;99.90
51567;DHT22;37657;53.182;5.638;2023-03-16T13:37:19;9.80;99.90
51567;DHT22;37657;53.182;5.638;2023-03-16T13:39:56;9.90;99.90
51567;DHT22;37657;53.182;5.638;2023-03-16T13:42:24;10.00;99.90
51567;DHT22;37657;53.182;5.638;2023-03-16T13:44:55;10.10;99.90
51567;DHT22;37657;53.182;5.638;2023-03-16T13:47:24;10.10;99.90
51567;DHT22;37657;53.182;5.638;2023-03-16T13:49:58;10.10;99.90
51567;DHT22;37657;53.182;5.638;2023-03-16T13:52:30;10.10;99.90
51567;DHT22;37657;53.182;5.638;2023-03-16T13:54:57;10.10;99.90
51567;DHT22;37657;53.182;5.638;2023-03-16T13:57:26;10.10;99.90
51567;DHT22;37657;53.182;5.638;2023-03-16T14:00:06;10.00;99.90
51567;DHT22;37657;53.182;5.638;2023-03-16T14:02:41;10.00;99.90
51567;DHT22;37657;53.182;5.638;2023-03-16T14:05:20;10.00;99.90
51567;DHT22;37657;53.182;5.638;2023-03-16T14:07:48;10.00;99.90
51567;DHT22;37657;53.182;5.638;2023-03-16T14:10:15;10.00;99.90
51567;DHT22;37657;53.182;5.638;2023-03-16T14:12:51;10.10;99.90
51567;DHT22;37657;53.182;5.638;2023-03-16T14:15:17;10.20;99.90
51567;DHT22;37657;53.182;5.638;2023-03-16T14:17:43;10.20;99.90
51567;DHT22;37657;53.182;5.638;2023-03-16T14:20:20;10.20;99.90
51567;DHT22;37657;53.182;5.638;2023-03-16T14:22:46;10.20;99.90
51567;DHT22;37657;53.182;5.638;2023-03-16T14:25:22;10.20;99.90
51567;DHT22;37657;53.182;5.638;2023-03-16T14:27:57;10.20;99.90
51567;DHT22;37657;53.182;5.638;2023-03-16T14:30:25;10.30;99.90
51567;DHT22;37657;53.182;5.638;2023-03-16T14:33:02;10.30;99.90
51567;DHT22;37657;53.182;5.638;2023-03-16T14:35:39;10.30;99.90
51567;DHT22;37657;53.182;5.638;2023-03-16T14:41:02;10.20;99.90
51567;DHT22;37657;53.182;5.638;2023-03-16T14:43:31;10.20;99.90
51567;DHT22;37657;53.182;5.638;2023-03-16T14:45:59;10.20;99.90
51567;DHT22;37657;53.182;5.638;2023-03-16T14:48:25;10.20;99.90
51567;DHT22;37657;53.182;5.638;2023-03-16T14:50:59;10.20;99.90
51567;DHT22;37657;53.182;5.638;2023-03-16T14:53:26;10.20;99.90
51567;DHT22;37657;53.182;5.638;2023-03-16T14:55:57;10.30;99.90
51567;DHT22;37657;53.182;5.638;2023-03-16T14:58:23;10.30;99.90
51567;DHT22;37657;53.182;5.638;2023-03-16T15:00:49;10.30;99.90
51567;DHT22;37657;53.182;5.638;2023-03-16T15:03:22;10.40;99.90
51567;DHT22;37657;53.182;5.638;2023-03-16T15:05:54;10.40;99.90
51567;DHT22;37657;53.182;5.638;2023-03-16T15:08:25;10.40;99.90
51567;DHT22;37657;53.182;5.638;2023-03-16T15:10:52;10.40;99.90
51567;DHT22;37657;53.182;5.638;2023-03-16T15:13:20;10.50;99.90
51567;DHT22;37657;53.182;5.638;2023-03-16T15:16:03;10.40;99.90
51567;DHT22;37657;53.182;5.638;2023-03-16T15:18:33;10.50;99.90
51567;DHT22;37657;53.182;5.638;2023-03-16T15:21:00;10.50;99.90
51567;DHT22;37657;53.182;5.638;2023-03-16T15:23:28;10.50;99.90
51567;DHT22;37657;53.182;5.638;2023-03-16T15:25:55;10.50;99.90
51567;DHT22;37657;53.182;5.638;2023-03-16T15:28:26;10.50;99.90
51567;DHT22;37657;53.182;5.638;2023-03-16T15:30:54;10.60;99.90
51567;DHT22;37657;53.182;5.638;2023-03-16T15:33:20;10.60;99.90
51567;DHT22;37657;53.182;5.638;2023-03-16T15:35:47;10.50;99.90
51567;DHT22;37657;53.182;5.638;2023-03-16T15:38:23;10.60;99.90
51567;DHT22;37657;53.182;5.638;2023-03-16T15:40:50;10.60;99.90
51567;DHT22;37657;53.182;5.638;2023-03-16T15:43:19;10.70;99.90
51567;DHT22;37657;53.182;5.638;2023-03-16T15:45:45;10.70;99.90
51567;DHT22;37657;53.182;5.638;2023-03-16T15:48:12;10.70;99.90
51567;DHT22;37657;53.182;5.638;2023-03-16T15:50:40;10.70;99.90
51567;DHT22;37657;53.182;5.638;2023-03-16T15:53:12;10.70;99.90
51567;DHT22;37657;53.182;5.638;2023-03-16T15:55:41;10.70;99.90
51567;DHT22;37657;53.182;5.638;2023-03-16T15:58:16;10.70;99.90
51567;DHT22;37657;53.182;5.638;2023-03-16T16:00:43;10.70;99.90
51567;DHT22;37657;53.182;5.638;2023-03-16T16:03:11;10.70;99.90
51567;DHT22;37657;53.182;5.638;2023-03-16T16:05:37;10.60;99.90
51567;DHT22;37657;53.182;5.638;2023-03-16T16:08:03;10.60;99.90
51567;DHT22;37657;53.182;5.638;2023-03-16T16:10:28;10.60;99.90
51567;DHT22;37657;53.182;5.638;2023-03-16T16:12:55;10.50;99.90
51567;DHT22;37657;53.182;5.638;2023-03-16T16:15:24;10.50;99.90
51567;DHT22;37657;53.182;5.638;2023-03-16T16:17:51;10.50;99.90
51567;DHT22;37657;53.182;5.638;2023-03-16T16:20:26;10.50;99.90
51567;DHT22;37657;53.182;5.638;2023-03-16T16:22:53;10.50;99.90
51567;DHT22;37657;53.182;5.638;2023-03-16T16:25:22;10.40;99.90
51567;DHT22;37657;53.182;5.638;2023-03-16T16:27:50;10.40;99.90
51567;DHT22;37657;53.182;5.638;2023-03-16T16:30:22;10.40;99.90
51567;DHT22;37657;53.182;5.638;2023-03-16T16:32:49;10.30;99.90
51567;DHT22;37657;53.182;5.638;2023-03-16T16:35:17;10.30;99.90
51567;DHT22;37657;53.182;5.638;2023-03-16T16:37:42;10.30;99.90
51567;DHT22;37657;53.182;5.638;2023-03-16T16:40:16;10.30;99.90
51567;DHT22;37657;53.182;5.638;2023-03-16T16:42:47;10.30;99.90
51567;DHT22;37657;53.182;5.638;2023-03-16T16:45:21;10.30;99.90
51567;DHT22;37657;53.182;5.638;2023-03-16T16:47:49;10.20;99.90
51567;DHT22;37657;53.182;5.638;2023-03-16T16:50:24;10.20;99.90
51567;DHT22;37657;53.182;5.638;2023-03-16T16:52:52;10.20;99.90
51567;DHT22;37657;53.182;5.638;2023-03-16T16:55:20;10.10;99.90
51567;DHT22;37657;53.182;5.638;2023-03-16T16:57:47;10.10;99.90
51567;DHT22;37657;53.182;5.638;2023-03-16T17:00:22;10.10;99.90
51567;DHT22;37657;53.182;5.638;2023-03-16T17:02:50;10.10;99.90
51567;DHT22;37657;53.182;5.638;2023-03-16T17:05:26;10.10;99.90
51567;DHT22;37657;53.182;5.638;2023-03-16T17:07:52;10.00;99.90